Time;durP1;ratioP1;P1;durP2;ratioP2;P2;SDS_P1;SDS_P2;PMS_P1;PMS_P2;Temp;Humidity;BMP_temperature;BMP_pressure;BME280_temperature;BME280_humidity;BME280_pressure;Samples;Min_cycle;Max_cycle;Signal;HPM_P1;HPM_P2
2023/08/03 00:02:03;;;;;;;7.97;2.10;;;;;;;19.68;64.68;97606.28;7270118;40;20252;31
2023/08/03 00:07:21;;;;;;;11.15;2.75;;;;;;;19.66;65.25;97625.66;7054275;40;21452;31
2023/08/03 00:12:53;;;;;;;7.73;2.20;;;;;;;19.61;65.00;97613.91;7252337;40;20245;31
2023/08/03 00:18:11;;;;;;;8.40;2.30;;;;;;;19.62;64.53;97621.81;7203372;40;20376;31
2023/08/03 00:23:45;;;;;;;11.03;2.13;;;;;;;19.58;64.32;97614.41;7240055;40;20379;31
2023/08/03 00:29:21;;;;;;;4.67;2.03;;;;;;;19.60;64.48;97613.06;7251152;40;20257;31
2023/08/03 00:34:42;;;;;;;6.55;2.00;;;;;;;19.61;64.41;97622.94;7243206;40;20350;31
2023/08/03 00:40:14;;;;;;;8.37;2.13;;;;;;;19.60;64.09;97618.53;7253069;40;20271;31
2023/08/03 00:45:50;;;;;;;5.83;1.90;;;;;;;19.58;65.22;97617.13;7214276;40;20426;31
2023/08/03 00:51:25;;;;;;;7.05;2.00;;;;;;;19.58;64.98;97622.59;7193843;40;20258;31
2023/08/03 00:57:00;;;;;;;6.90;2.00;;;;;;;19.58;64.58;97636.28;7183805;40;20265;31
2023/08/03 01:02:33;;;;;;;5.53;1.87;;;;;;;19.58;65.08;97598.84;7234486;40;20355;31
2023/08/03 01:08:08;;;;;;;8.63;2.00;;;;;;;19.60;64.78;97618.53;7205439;40;20345;31
2023/08/03 01:13:28;;;;;;;7.97;2.17;;;;;;;19.60;63.20;97631.37;7222665;40;20261;31
2023/08/03 01:19:04;;;;;;;7.27;1.90;;;;;;;19.59;63.46;97637.94;7204991;40;20420;31
2023/08/03 01:29:41;;;;;;;6.97;1.80;;;;;;;19.52;62.00;97662.78;7228805;40;20290;31
2023/08/03 01:35:16;;;;;;;4.10;1.67;;;;;;;19.46;62.33;97652.03;7250149;40;20250;31
2023/08/03 01:40:33;;;;;;;4.30;1.90;;;;;;;19.41;62.56;97666.47;7187988;40;21616;31
2023/08/03 01:46:09;;;;;;;3.53;1.30;;;;;;;19.34;61.66;97650.28;7174739;40;20232;31
2023/08/03 01:51:29;;;;;;;5.73;1.83;;;;;;;19.26;62.14;97682.72;7199028;40;20331;31
2023/08/03 01:57:04;;;;;;;8.07;1.60;;;;;;;19.23;62.43;97683.22;7226590;40;20276;31
2023/08/03 02:03:11;;;;;;;4.40;1.53;;;;;;;19.16;63.20;97669.81;7272224;39;20284;31
2023/08/03 02:08:31;;;;;;;4.47;1.50;;;;;;;19.13;63.80;97666.75;7154664;40;20351;31
2023/08/03 02:13:52;;;;;;;5.35;1.70;;;;;;;19.13;63.88;97653.09;7155468;40;20263;31
2023/08/03 02:19:25;;;;;;;5.70;1.30;;;;;;;19.09;63.37;97671.06;7187355;40;20242;31
2023/08/03 02:24:42;;;;;;;3.03;1.30;;;;;;;19.10;63.44;97683.66;7226908;40;20363;31
2023/08/03 02:30:14;;;;;;;3.27;1.33;;;;;;;19.05;64.22;97672.66;7251787;40;20248;31
2023/08/03 02:35:50;;;;;;;3.65;1.40;;;;;;;18.99;63.33;97671.00;7213954;40;20268;31
2023/08/03 02:41:08;;;;;;;4.53;1.40;;;;;;;18.96;64.12;97669.59;7194585;40;20258;31
2023/08/03 02:46:25;;;;;;;3.17;1.30;;;;;;;18.95;63.37;97680.78;7241403;40;20393;31
2023/08/03 02:51:56;;;;;;;3.63;1.50;;;;;;;18.89;64.74;97699.84;7234397;40;20269;31
2023/08/03 02:57:16;;;;;;;3.27;1.50;;;;;;;18.87;64.51;97674.69;7262221;40;20280;31
2023/08/03 03:02:51;;;;;;;5.30;1.50;;;;;;;18.84;64.87;97701.69;7218067;40;20257;31
2023/08/03 03:08:24;;;;;;;7.20;1.57;;;;;;;18.78;65.75;97662.56;7200960;40;20254;31
2023/08/03 03:13:44;;;;;;;4.40;1.30;;;;;;;18.75;66.74;97684.94;7182761;40;20242;31
2023/08/03 03:19:19;;;;;;;3.13;1.50;;;;;;;18.69;66.92;97691.41;7176804;40;20297;31
2023/08/03 03:24:55;;;;;;;3.85;1.30;;;;;;;18.60;68.04;97703.88;7192978;40;20340;31
2023/08/03 03:30:27;;;;;;;3.00;1.20;;;;;;;18.55;68.70;97716.63;7206700;40;20245;31
2023/08/03 03:35:44;;;;;;;3.23;1.30;;;;;;;18.45;68.26;97726.28;7171676;40;20420;31
2023/08/03 03:41:18;;;;;;;1.80;1.00;;;;;;;18.27;70.87;97723.88;7182696;40;20460;31
2023/08/03 03:46:38;;;;;;;4.03;1.13;;;;;;;18.11;72.71;97737.53;7179405;40;20251;31
2023/08/03 03:51:58;;;;;;;2.75;1.05;;;;;;;17.95;76.06;97750.09;7161835;40;20246;31
2023/08/03 03:57:34;;;;;;;5.00;1.33;;;;;;;17.78;77.56;97765.63;7185414;40;21894;31
2023/08/03 04:02:52;;;;;;;1.90;1.00;;;;;;;17.52;78.56;97789.72;7232942;40;20330;31
2023/08/03 04:08:09;;;;;;;2.25;1.20;;;;;;;17.38;80.11;97758.41;7253044;40;20264;31
2023/08/03 04:13:42;;;;;;;2.55;1.15;;;;;;;17.31;81.44;97751.47;7254384;40;20361;31
2023/08/03 04:19:00;;;;;;;3.57;1.40;;;;;;;17.32;80.71;97734.88;7243617;40;20261;31
2023/08/03 04:24:16;;;;;;;4.33;1.70;;;;;;;17.31;80.92;97748.72;7274832;40;20343;31
2023/08/03 04:29:52;;;;;;;6.63;1.53;;;;;;;17.27;80.88;97775.63;7228917;40;20287;31
2023/08/03 04:35:14;;;;;;;5.03;1.73;;;;;;;17.30;80.35;97761.53;7250990;40;20246;31
2023/08/03 04:40:31;;;;;;;3.25;1.50;;;;;;;17.30;79.61;97798.81;7212558;40;20384;31
2023/08/03 04:51:09;;;;;;;3.85;1.40;;;;;;;17.37;78.61;97794.91;7302744;39;20892;31
2023/08/03 05:02:03;;;;;;;5.70;1.70;;;;;;;17.41;78.35;97825.19;7308836;39;20487;31
2023/08/03 05:12:43;;;;;;;4.43;1.63;;;;;;;17.42;77.38;97805.87;7266250;40;20413;31
2023/08/03 05:23:23;;;;;;;4.82;1.84;;;;;;;17.47;76.72;97838.66;7237940;40;20287;31
2023/08/03 05:28:59;;;;;;;2.95;1.60;;;;;;;17.49;76.11;97824.81;7236414;40;21440;31
2023/08/03 05:39:40;;;;;;;5.50;1.80;;;;;;;17.50;75.77;97843.63;7213146;40;20282;31
2023/08/03 05:50:21;;;;;;;4.40;1.40;;;;;;;17.53;75.78;97872.28;7217835;40;20297;31
2023/08/03 06:01:01;;;;;;;3.73;1.80;;;;;;;17.51;76.03;97907.09;7246152;40;20399;31
2023/08/03 06:06:21;;;;;;;4.67;1.70;;;;;;;17.53;76.04;97877.72;7199770;40;20257;31
2023/08/03 06:11:57;;;;;;;5.87;1.57;;;;;;;17.50;75.57;97878.22;7207352;40;20291;31
2023/08/03 06:22:22;;;;;;;3.60;1.40;;;;;;;17.53;75.93;97886.72;7238602;40;20405;31
2023/08/03 06:27:57;;;;;;;5.70;1.70;;;;;;;17.50;76.52;97880.94;7256609;40;20281;31
2023/08/03 06:38:36;;;;;;;28.20;2.60;;;;;;;17.54;76.50;97891.13;7292974;39;20257;31
2023/08/03 06:44:13;;;;;;;3.30;1.30;;;;;;;17.56;76.32;97902.59;7257559;40;21847;31
2023/08/03 06:49:44;;;;;;;4.43;1.50;;;;;;;17.51;77.85;97904.37;7233700;40;20340;31
2023/08/03 06:55:16;;;;;;;4.53;1.87;;;;;;;17.37;78.55;97924.81;7194478;40;20316;31
2023/08/03 07:00:53;;;;;;;4.47;1.77;;;;;;;17.25;79.54;97934.87;7144883;40;20274;31
2023/08/03 07:06:14;;;;;;;6.20;1.57;;;;;;;17.15;80.28;97929.25;7191093;40;20341;31
2023/08/03 07:16:52;;;;;;;4.70;2.00;;;;;;;17.24;81.39;97938.72;7008914;40;21339;31
2023/08/03 07:22:12;;;;;;;4.53;1.67;;;;;;;17.29;81.09;97955.16;7287671;39;22229;31
2023/08/03 07:27:47;;;;;;;6.10;1.60;;;;;;;17.28;81.86;97958.94;7280999;40;20268;31
2023/08/03 07:33:20;;;;;;;5.93;1.80;;;;;;;17.34;82.51;97966.13;7202257;40;20256;31
2023/08/03 07:38:55;;;;;;;4.60;1.80;;;;;;;17.37;83.67;97966.50;7231324;40;20263;31
2023/08/03 07:49:35;;;;;;;5.47;1.70;;;;;;;17.55;83.08;97987.31;7192120;40;20259;31
2023/08/03 07:55:08;;;;;;;5.10;1.80;;;;;;;17.61;83.24;97983.63;7232241;40;20389;31
2023/08/03 08:00:43;;;;;;;4.13;1.67;;;;;;;17.67;83.38;97985.41;7235002;40;21821;31
2023/08/03 08:06:22;;;;;;;4.90;1.80;;;;;;;17.66;84.01;97991.09;7221568;40;20279;31
2023/08/03 08:11:54;;;;;;;5.07;1.80;;;;;;;17.71;83.49;97986.59;7173378;40;20283;31
2023/08/03 08:17:15;;;;;;;5.20;1.70;;;;;;;17.91;83.15;97994.31;7194657;40;20285;31
2023/08/03 08:22:46;;;;;;;4.83;1.97;;;;;;;18.10;82.11;97994.97;7222973;40;20268;31
2023/08/03 08:28:21;;;;;;;4.43;1.50;;;;;;;18.22;81.39;98006.63;7185559;40;20323;31
2023/08/03 08:33:53;;;;;;;4.50;1.60;;;;;;;18.03;81.64;98006.03;7194149;40;20247;31
2023/08/03 08:39:27;;;;;;;7.32;1.75;;;;;;;17.94;81.56;98007.50;7204272;40;21574;31
2023/08/03 08:45:01;;;;;;;3.30;1.43;;;;;;;17.98;81.67;98025.84;7144948;40;20338;31
2023/08/03 08:50:37;;;;;;;6.63;2.00;;;;;;;18.02;80.92;98026.19;7134294;40;20287;31
2023/08/03 08:56:10;;;;;;;4.23;1.63;;;;;;;17.99;81.30;98041.13;7152326;40;20270;31
2023/08/03 09:02:03;;;;;;;3.73;1.37;;;;;;;17.98;81.42;98036.75;7131159;40;20251;31
2023/08/03 09:07:20;;;;;;;2.70;1.40;;;;;;;17.95;81.30;98048.13;7156756;40;20268;31
2023/08/03 09:12:54;;;;;;;4.80;1.60;;;;;;;17.95;81.31;98075.38;7203058;40;20255;31
2023/08/03 09:18:11;;;;;;;2.73;1.30;;;;;;;17.98;80.68;98074.94;7193994;40;20316;31
2023/08/03 09:23:42;;;;;;;2.23;1.27;;;;;;;17.97;81.68;98084.19;7184294;40;20261;31
2023/08/03 09:29:18;;;;;;;4.33;1.40;;;;;;;18.03;81.67;98093.28;7181298;40;20268;31
2023/08/03 09:34:55;;;;;;;2.00;1.10;;;;;;;17.96;82.02;98101.59;7197107;40;20342;31
2023/08/03 09:40:24;;;;;;;3.50;1.20;;;;;;;17.85;82.82;98113.38;7185958;40;20321;31
2023/08/03 09:45:57;;;;;;;2.50;1.17;;;;;;;17.66;84.86;98111.84;7164840;40;20251;31
2023/08/03 09:51:29;;;;;;;2.90;1.20;;;;;;;17.63;85.79;98125.94;7156040;40;20273;31
2023/08/03 09:57:04;;;;;;;4.43;1.57;;;;;;;17.62;85.33;98121.56;7140931;40;20279;31
2023/08/03 10:02:38;;;;;;;3.33;1.20;;;;;;;17.67;86.03;98129.84;7134819;40;20271;31
2023/08/03 10:08:11;;;;;;;3.40;1.40;;;;;;;17.84;85.72;98141.69;7135599;40;21860;31
2023/08/03 10:13:43;;;;;;;4.03;1.57;;;;;;;17.91;84.69;98134.19;7238013;40;20250;31
2023/08/03 10:19:14;;;;;;;3.50;1.50;;;;;;;17.95;84.37;98145.44;7224743;40;20277;31
2023/08/03 10:24:32;;;;;;;3.13;1.33;;;;;;;17.88;84.49;98152.94;7248832;40;20257;31
2023/08/03 10:30:07;;;;;;;5.15;1.30;;;;;;;17.84;84.75;98158.06;7202671;40;20338;31
2023/08/03 10:35:53;;;;;;;2.57;1.40;;;;;;;17.82;85.41;98160.16;7253549;40;20254;31
2023/08/03 10:41:37;;;;;;;3.37;1.57;;;;;;;17.90;85.12;98154.34;7257428;40;20360;31
2023/08/03 10:46:58;;;;;;;3.10;1.33;;;;;;;18.03;84.51;98154.09;7263734;40;21964;31
2023/08/03 10:52:45;;;;;;;5.40;1.90;;;;;;;18.18;83.19;98166.41;7293742;39;20280;31
2023/08/03 10:58:03;;;;;;;2.93;1.13;;;;;;;18.29;82.86;98168.28;7223016;40;20271;31
2023/08/03 11:03:19;;;;;;;1.84;1.10;;;;;;;18.47;81.15;98154.47;7208265;40;20360;31
2023/08/03 11:08:55;;;;;;;3.65;1.30;;;;;;;18.93;80.63;98158.91;7213636;40;20270;31
2023/08/03 11:14:30;;;;;;;2.27;1.10;;;;;;;19.14;78.83;98179.22;7179144;40;20258;31
2023/08/03 11:20:06;;;;;;;1.75;1.20;;;;;;;19.45;78.32;98178.69;7185482;40;20357;31
2023/08/03 11:25:41;;;;;;;2.30;1.10;;;;;;;19.52;77.01;98168.44;7233654;40;20265;31
2023/08/03 11:31:16;;;;;;;3.90;1.23;;;;;;;19.57;77.18;98170.44;7144637;40;20246;31
2023/08/03 11:36:36;;;;;;;3.37;1.37;;;;;;;19.72;76.80;98170.66;7158456;40;20418;31
2023/08/03 11:42:12;;;;;;;3.87;1.27;;;;;;;20.05;74.53;98164.31;7174521;40;20261;31
2023/08/03 11:47:56;;;;;;;2.20;1.20;;;;;;;20.07;72.96;98184.03;7171878;40;20279;31
2023/08/03 11:53:40;;;;;;;1.75;1.00;;;;;;;20.46;72.04;98171.97;7223902;40;20261;31
2023/08/03 11:59:14;;;;;;;3.07;1.47;;;;;;;20.64;71.08;98179.87;7236780;40;20365;31
2023/08/03 12:04:49;;;;;;;2.35;1.15;;;;;;;20.53;71.40;98175.38;7244044;40;20269;31
2023/08/03 12:10:26;;;;;;;2.65;1.10;;;;;;;20.89;71.91;98162.88;7203518;40;20355;31
2023/08/03 12:16:04;;;;;;;3.28;1.05;;;;;;;20.89;70.36;98168.34;7183321;40;20270;31
2023/08/03 12:21:25;;;;;;;2.20;1.10;;;;;;;21.14;68.64;98181.53;7122609;40;22010;31
2023/08/03 12:26:42;;;;;;;2.30;1.15;;;;;;;21.20;69.94;98177.75;7162371;40;20277;31
2023/08/03 12:32:14;;;;;;;2.40;1.30;;;;;;;21.11;68.84;98185.56;7172509;40;20270;31
2023/08/03 12:37:35;;;;;;;3.58;1.10;;;;;;;20.83;69.06;98202.28;7216928;40;20265;31
2023/08/03 12:48:16;;;;;;;2.35;1.15;;;;;;;20.86;68.22;98200.94;7236165;40;20269;31
2023/08/03 12:53:34;;;;;;;1.85;1.10;;;;;;;21.18;67.76;98188.16;7201587;40;20250;31
2023/08/03 12:58:54;;;;;;;4.03;1.30;;;;;;;21.37;67.01;98208.59;7240498;40;20343;31
2023/08/03 13:04:27;;;;;;;2.78;1.30;;;;;;;21.64;65.51;98192.09;7213492;40;20269;31
2023/08/03 13:09:58;;;;;;;1.70;1.10;;;;;;;21.75;64.43;98193.03;7195027;40;20276;31
2023/08/03 13:15:19;;;;;;;2.50;1.00;;;;;;;21.46;64.61;98201.56;7213839;40;20269;31
2023/08/03 13:20:51;;;;;;;2.50;1.40;;;;;;;21.38;65.89;98210.25;7216419;40;20289;31
2023/08/03 13:26:09;;;;;;;3.17;1.33;;;;;;;21.56;65.72;98226.34;7185211;40;20285;31
2023/08/03 13:31:41;;;;;;;3.03;1.30;;;;;;;21.77;64.89;98226.50;7182145;40;21174;31
2023/08/03 13:37:17;;;;;;;3.40;1.10;;;;;;;21.65;64.17;98207.47;7215309;40;20300;31
2023/08/03 13:42:34;;;;;;;2.30;1.15;;;;;;;21.72;64.10;98221.78;7221886;40;22552;31
2023/08/03 13:48:09;;;;;;;2.97;1.20;;;;;;;21.83;64.73;98209.00;7063446;40;20892;31
2023/08/03 13:53:45;;;;;;;1.97;1.20;;;;;;;21.99;63.59;98213.53;7223772;40;20414;31
2023/08/03 13:59:20;;;;;;;3.35;1.50;;;;;;;22.21;64.24;98208.72;7172650;40;20255;31
2023/08/03 14:04:52;;;;;;;1.15;1.00;;;;;;;22.31;62.43;98214.28;7135847;40;20326;31
2023/08/03 14:10:23;;;;;;;3.37;1.15;;;;;;;22.30;61.76;98217.28;7135957;40;20247;31
2023/08/03 14:15:41;;;;;;;2.15;1.15;;;;;;;22.41;62.15;98214.34;7191877;40;20269;31
2023/08/03 14:21:16;;;;;;;3.37;1.23;;;;;;;22.54;61.28;98236.91;7210944;40;20264;31
2023/08/03 14:26:52;;;;;;;2.65;1.20;;;;;;;22.23;60.80;98239.50;7172999;40;20363;31
2023/08/03 14:32:09;;;;;;;3.37;1.20;;;;;;;22.28;62.52;98236.78;7195931;40;20362;31
2023/08/03 14:37:29;;;;;;;2.37;1.20;;;;;;;22.09;62.19;98241.03;7203470;40;20300;31
2023/08/03 14:43:03;;;;;;;2.03;1.25;;;;;;;22.15;63.07;98242.75;7257877;40;20253;31
2023/08/03 14:48:35;;;;;;;1.90;1.10;;;;;;;22.20;62.36;98242.78;7262354;40;20273;31
2023/08/03 14:53:55;;;;;;;1.98;1.17;;;;;;;22.15;62.66;98259.22;7242743;40;20248;31
2023/08/03 14:59:31;;;;;;;4.27;1.23;;;;;;;22.19;62.49;98252.09;7266349;40;20256;31
2023/08/03 15:05:03;;;;;;;3.00;1.30;;;;;;;22.32;62.02;98254.38;7230963;40;20265;31
2023/08/03 15:10:20;;;;;;;2.97;1.25;;;;;;;22.44;61.27;98270.66;7204914;40;20255;31
2023/08/03 15:15:54;;;;;;;2.25;1.12;;;;;;;22.35;59.83;98256.59;7227112;40;20270;31
2023/08/03 15:21:27;;;;;;;3.12;1.30;;;;;;;22.23;60.07;98255.97;7222200;40;20264;31
2023/08/03 15:27:03;;;;;;;1.52;1.02;;;;;;;22.23;60.82;98257.88;7249490;40;20343;31
2023/08/03 15:37:43;;;;;;;2.03;1.10;;;;;;;22.48;59.67;98264.34;7225128;40;21307;31
2023/08/03 15:48:17;;;;;;;2.97;1.25;;;;;;;22.23;60.12;98269.69;7281331;39;21255;31
2023/08/03 15:58:54;;;;;;;2.67;1.33;;;;;;;22.10;59.71;98270.16;7207589;40;20415;31
2023/08/03 16:09:15;;;;;;;1.98;1.00;;;;;;;22.55;59.36;98275.12;7212235;40;20542;31
2023/08/03 16:14:48;;;;;;;2.37;1.02;;;;;;;22.50;58.02;98275.09;7176660;40;20389;31
2023/08/03 16:20:22;;;;;;;2.90;1.45;;;;;;;22.41;62.16;98263.78;7215988;40;20260;31
2023/08/03 16:25:54;;;;;;;2.75;1.40;;;;;;;22.35;62.04;98266.75;7252944;40;20351;31
2023/08/03 16:31:31;;;;;;;2.80;1.30;;;;;;;22.30;63.39;98264.78;7208975;40;20470;31
2023/08/03 16:37:03;;;;;;;4.95;1.60;;;;;;;22.42;64.07;98265.41;7151128;40;20345;31
2023/08/03 16:42:20;;;;;;;2.80;1.23;;;;;;;22.01;66.33;98279.97;7126554;41;20270;31
2023/08/03 16:47:56;;;;;;;2.92;1.48;;;;;;;21.67;67.82;98262.09;7120113;40;20262;31
2023/08/03 16:53:13;;;;;;;3.25;1.33;;;;;;;21.34;68.40;98280.41;7179099;40;20366;31
2023/08/03 16:58:30;;;;;;;1.44;1.20;;;;;;;21.26;69.05;98280.06;7216491;40;20249;31
2023/08/03 17:04:03;;;;;;;2.80;1.40;;;;;;;21.30;70.17;98270.22;7219874;40;20257;31
2023/08/03 17:09:36;;;;;;;3.38;1.38;;;;;;;21.42;68.91;98290.91;7214865;40;20339;31
2023/08/03 17:15:07;;;;;;;4.40;1.50;;;;;;;21.39;67.62;98285.97;7186232;40;20267;31
2023/08/03 17:20:40;;;;;;;3.20;1.30;;;;;;;21.26;67.22;98311.03;7156087;40;20267;31
2023/08/03 17:26:15;;;;;;;2.70;1.55;;;;;;;21.21;65.57;98313.72;7134604;40;20270;31
2023/08/03 17:31:32;;;;;;;2.95;1.40;;;;;;;21.24;66.65;98328.84;7187736;40;20321;31
2023/08/03 17:37:05;;;;;;;3.55;1.40;;;;;;;21.14;65.94;98332.28;7225038;40;20254;31
2023/08/03 17:42:37;;;;;;;2.30;1.13;;;;;;;21.11;65.87;98332.75;7179048;40;20246;31
2023/08/03 17:48:09;;;;;;;5.00;1.50;;;;;;;21.05;65.78;98331.03;7186546;40;20359;31
2023/08/03 17:53:41;;;;;;;1.93;1.13;;;;;;;20.94;66.21;98338.28;7185057;40;21245;31
2023/08/03 17:58:58;;;;;;;2.53;1.20;;;;;;;20.93;66.23;98342.09;7199257;40;20792;31
2023/08/03 18:04:32;;;;;;;3.62;1.40;;;;;;;20.90;65.96;98360.97;7185981;40;20426;31
2023/08/03 18:10:09;;;;;;;4.83;1.30;;;;;;;20.84;67.11;98394.88;7230271;40;20242;31
2023/08/03 18:15:27;;;;;;;3.80;1.40;;;;;;;20.56;69.67;98412.25;7165936;40;20475;31
2023/08/03 18:20:47;;;;;;;3.90;1.53;;;;;;;20.24;72.38;98401.00;7210028;40;20697;31
2023/08/03 18:26:20;;;;;;;4.37;1.30;;;;;;;20.06;73.50;98420.38;7203481;40;20419;31
2023/08/03 18:36:45;;;;;;;2.67;1.30;;;;;;;19.52;75.23;98391.78;7232478;40;20277;31
2023/08/03 18:47:25;;;;;;;4.22;1.30;;;;;;;19.36;76.91;98394.16;7202150;40;20273;31
2023/08/03 18:58:03;;;;;;;2.33;1.27;;;;;;;19.21;77.32;98406.69;7263482;39;20279;31
2023/08/03 19:03:34;;;;;;;3.00;1.23;;;;;;;19.07;78.24;98397.09;7256900;40;20360;31
2023/08/03 19:09:09;;;;;;;2.80;1.20;;;;;;;19.05;78.26;98380.09;7231851;40;20271;31
2023/08/03 19:14:44;;;;;;;2.00;1.10;;;;;;;18.96;77.99;98381.53;7215204;40;20352;31
2023/08/03 19:20:21;;;;;;;2.47;1.30;;;;;;;18.94;77.93;98384.53;7173724;40;20265;31
2023/08/03 19:25:56;;;;;;;3.90;1.20;;;;;;;18.96;77.77;98376.91;7186335;40;20257;31
2023/08/03 19:31:31;;;;;;;4.10;1.50;;;;;;;18.92;78.56;98382.03;7199370;40;20265;31
2023/08/03 19:37:07;;;;;;;2.80;1.20;;;;;;;18.87;78.37;98376.47;7194117;40;20312;31
2023/08/03 19:42:42;;;;;;;3.35;1.65;;;;;;;18.84;78.58;98366.03;7174277;40;20262;31
2023/08/03 19:48:17;;;;;;;5.10;1.85;;;;;;;18.85;78.59;98367.69;7117822;40;20443;31
2023/08/03 19:53:53;;;;;;;3.65;1.50;;;;;;;18.69;78.85;98394.91;7154844;40;20259;31
2023/08/03 19:59:29;;;;;;;3.00;1.57;;;;;;;18.66;79.49;98418.03;7185529;40;20336;31
2023/08/03 20:04:49;;;;;;;3.13;1.50;;;;;;;18.74;79.28;98433.22;7184107;40;20246;31
2023/08/03 20:10:26;;;;;;;2.17;1.37;;;;;;;18.65;79.19;98440.13;7225668;40;20388;31
2023/08/03 20:15:43;;;;;;;2.85;1.30;;;;;;;18.69;79.32;98444.03;7155213;40;20358;31
2023/08/03 20:21:03;;;;;;;3.80;1.40;;;;;;;18.71;79.18;98450.06;7156564;40;20449;31
2023/08/03 20:26:40;;;;;;;3.35;1.45;;;;;;;18.65;79.33;98453.78;7162705;40;20364;31
2023/08/03 20:32:12;;;;;;;2.50;1.30;;;;;;;18.53;79.83;98447.44;7028884;40;21254;31
2023/08/03 20:37:32;;;;;;;3.15;1.45;;;;;;;18.63;79.45;98454.00;7179216;40;20274;31
2023/08/03 20:48:13;;;;;;;3.40;1.40;;;;;;;18.47;79.99;98449.22;7253427;40;20283;31
2023/08/03 20:53:50;;;;;;;3.15;1.30;;;;;;;18.54;80.16;98454.59;7239868;40;20265;31
2023/08/03 20:59:24;;;;;;;1.40;1.30;;;;;;;18.57;79.58;98462.28;7158839;40;20276;31
2023/08/03 21:05:00;;;;;;;2.80;1.27;;;;;;;18.56;80.31;98472.38;7196167;40;20242;31
2023/08/03 21:10:35;;;;;;;4.47;1.80;;;;;;;18.42;80.15;98476.37;7164096;40;20265;31
2023/08/03 21:15:55;;;;;;;2.97;1.40;;;;;;;18.40;79.78;98471.16;7200897;40;20262;31
2023/08/03 21:21:31;;;;;;;2.20;1.40;;;;;;;18.36;80.11;98486.31;7213505;40;20336;31
2023/08/03 21:26:51;;;;;;;4.50;1.63;;;;;;;18.32;80.63;98485.13;7224426;40;20255;31
2023/08/03 21:32:26;;;;;;;3.77;1.50;;;;;;;18.42;79.82;98485.41;7239449;40;20276;31
2023/08/03 21:38:02;;;;;;;4.27;1.40;;;;;;;18.41;79.86;98496.53;7177083;40;20297;31
2023/08/03 21:43:37;;;;;;;4.50;1.25;;;;;;;18.45;79.72;98506.75;7171120;40;21902;31
2023/08/03 21:48:57;;;;;;;4.77;1.60;;;;;;;18.44;80.10;98512.44;7194604;40;20376;31
2023/08/03 21:54:31;;;;;;;3.20;1.43;;;;;;;18.39;80.63;98517.75;7218592;40;20276;31
2023/08/03 21:59:52;;;;;;;4.10;1.73;;;;;;;18.44;81.26;98512.44;7262310;40;20253;31
2023/08/03 22:05:24;;;;;;;3.50;1.67;;;;;;;18.38;80.71;98514.22;7263437;40;20253;31
2023/08/03 22:11:00;;;;;;;3.97;1.77;;;;;;;18.35;81.16;98503.75;7223372;40;20238;31
2023/08/03 22:16:32;;;;;;;3.23;1.60;;;;;;;18.43;81.61;98513.50;7181884;40;20261;31
2023/08/03 22:21:52;;;;;;;2.25;1.50;;;;;;;18.27;82.31;98519.62;7163636;40;20262;31
2023/08/03 22:27:28;;;;;;;3.97;1.70;;;;;;;18.26;82.40;98529.69;7172427;40;20352;31
2023/08/03 22:33:03;;;;;;;3.07;1.60;;;;;;;18.25;81.79;98527.22;7201704;40;20348;31
2023/08/03 22:43:43;;;;;;;2.22;1.64;;;;;;;18.24;82.24;98526.41;7247156;40;20370;31
2023/08/03 22:54:07;;;;;;;3.72;1.70;;;;;;;18.00;83.00;98535.53;7318847;39;20283;31
2023/08/03 22:59:40;;;;;;;3.93;1.90;;;;;;;18.01;83.59;98543.50;7296410;39;21927;31
2023/08/03 23:05:00;;;;;;;3.32;1.54;;;;;;;18.10;83.62;98551.34;7267324;39;20357;31
2023/08/03 23:10:32;;;;;;;2.90;1.70;;;;;;;18.11;83.74;98553.84;7274757;40;20260;31
2023/08/03 23:16:08;;;;;;;2.70;1.60;;;;;;;18.14;83.50;98560.72;7232699;40;20257;31
2023/08/03 23:21:43;;;;;;;4.67;1.67;;;;;;;18.12;83.80;98568.34;7240351;40;20837;31
2023/08/03 23:32:23;;;;;;;3.65;1.62;;;;;;;18.11;83.61;98580.31;7242327;40;20272;31
2023/08/03 23:37:55;;;;;;;2.40;1.50;;;;;;;18.10;83.82;98575.91;7239441;40;20258;31
2023/08/03 23:43:15;;;;;;;3.03;1.50;;;;;;;18.09;83.56;98577.78;7219797;40;20253;31
2023/08/03 23:48:46;;;;;;;2.47;1.50;;;;;;;18.07;84.13;98576.37;7215276;40;20258;31
2023/08/03 23:54:07;;;;;;;3.60;1.70;;;;;;;18.01;84.42;98569.94;7251024;40;20355;31
2023/08/03 23:59:39;;;;;;;2.95;1.50;;;;;;;18.09;83.66;98566.03;7250608;39;20357;31
